Time;durP1;ratioP1;P1;durP2;ratioP2;P2;SDS_P1;SDS_P2;PMS_P1;PMS_P2;Temp;Humidity;BMP_temperature;BMP_pressure;BME280_temperature;BME280_humidity;BME280_pressure;Samples;Min_cycle;Max_cycle;Signal;HPM_P1;HPM_P2
2022/05/05 00:01:21;;;;;;;12.55;6.75;;;;;;;;;;5068219;28;20299;-66
2022/05/05 00:03:47;;;;;;;13.35;6.25;;;;;;;;;;5056094;28;20191;-66
2022/05/05 00:06:12;;;;;;;14.73;6.35;;;;;;;;;;5066561;28;20201;-66
2022/05/05 00:08:37;;;;;;;13.52;6.80;;;;;;;;;;5066057;28;20209;-66
2022/05/05 00:16:31;;;;;;;11.90;6.53;;;;;;;;;;5053352;28;20239;-66
2022/05/05 00:18:56;;;;;;;14.65;6.80;;;;;;;;;;5067558;28;20192;-66
2022/05/05 00:21:22;;;;;;;12.65;6.25;;;;;;;;;;5067268;28;20267;-66
2022/05/05 00:23:48;;;;;;;15.57;6.32;;;;;;;;;;5067619;28;20181;-66
2022/05/05 00:26:13;;;;;;;11.80;6.60;;;;;;;;;;5067580;28;20196;-66
2022/05/05 00:28:38;;;;;;;12.57;6.47;;;;;;;;;;5067847;28;20636;-66
2022/05/05 00:31:04;;;;;;;11.38;5.90;;;;;;;;;;5066553;28;20291;-66
2022/05/05 00:33:29;;;;;;;10.75;6.03;;;;;;;;;;5056413;28;20188;-66
2022/05/05 00:35:54;;;;;;;12.57;6.47;;;;;;;;;;5062870;28;20173;-66
2022/05/05 00:38:19;;;;;;;13.45;6.43;;;;;;;;;;5068598;28;20200;-66
2022/05/05 00:40:45;;;;;;;12.52;6.13;;;;;;;;;;5069213;28;20208;-66
2022/05/05 00:43:10;;;;;;;16.90;6.85;;;;;;;;;;5070870;28;20212;-66
2022/05/05 00:45:36;;;;;;;10.30;6.32;;;;;;;;;;5065430;28;20254;-66
2022/05/05 00:48:05;;;;;;;10.77;6.00;;;;;;;;;;5069453;28;20600;-66
2022/05/05 00:50:33;;;;;;;10.55;6.35;;;;;;;;;;5067280;28;20239;-66
2022/05/05 00:52:58;;;;;;;9.63;6.07;;;;;;;;;;5071353;28;20445;-66
2022/05/05 00:55:24;;;;;;;8.80;6.20;;;;;;;;;;5067800;28;20185;-66
2022/05/05 00:57:49;;;;;;;11.43;6.15;;;;;;;;;;5064526;28;20511;-66
2022/05/05 01:00:15;;;;;;;12.27;6.00;;;;;;;;;;5069229;28;20734;-66
2022/05/05 01:02:40;;;;;;;12.05;6.82;;;;;;;;;;5070175;28;20544;-66
2022/05/05 01:05:06;;;;;;;15.27;6.82;;;;;;;;;;5070402;28;20173;-66
2022/05/05 01:07:33;;;;;;;15.32;6.93;;;;;;;;;;5064421;28;20552;-66
2022/05/05 01:09:59;;;;;;;14.65;6.63;;;;;;;;;;5070548;28;20203;-67
2022/05/05 01:12:29;;;;;;;17.35;6.93;;;;;;;;;;5063058;28;20197;-66
2022/05/05 01:14:55;;;;;;;11.52;6.43;;;;;;;;;;5070087;28;20247;-66
2022/05/05 01:17:21;;;;;;;13.35;6.60;;;;;;;;;;5061920;28;20181;-66
2022/05/05 01:19:47;;;;;;;13.00;6.78;;;;;;;;;;5070469;28;20184;-66
2022/05/05 01:22:15;;;;;;;15.50;7.00;;;;;;;;;;5058109;28;20181;-65
2022/05/05 01:30:08;;;;;;;18.90;7.13;;;;;;;;;;5071714;28;20559;-66
2022/05/05 01:32:34;;;;;;;15.20;7.05;;;;;;;;;;5065661;28;20196;-66
2022/05/05 01:35:00;;;;;;;15.45;7.43;;;;;;;;;;5070227;28;20306;-66
2022/05/05 01:37:26;;;;;;;12.10;6.95;;;;;;;;;;5066579;28;20181;-66
2022/05/05 01:39:52;;;;;;;14.98;7.18;;;;;;;;;;5057453;28;20315;-68
2022/05/05 01:42:17;;;;;;;14.23;7.32;;;;;;;;;;5069856;28;20255;-65
2022/05/05 01:44:42;;;;;;;14.77;7.00;;;;;;;;;;5069236;28;20188;-65
2022/05/05 01:47:08;;;;;;;14.82;7.03;;;;;;;;;;5066066;28;20199;-65
2022/05/05 01:49:33;;;;;;;18.45;7.72;;;;;;;;;;5069649;28;20188;-65
2022/05/05 01:51:59;;;;;;;14.88;8.45;;;;;;;;;;5059327;28;20589;-65
2022/05/05 01:54:24;;;;;;;14.88;7.35;;;;;;;;;;5070938;28;20200;-65
2022/05/05 01:56:50;;;;;;;16.08;7.72;;;;;;;;;;5062642;28;20264;-66
2022/05/05 01:59:15;;;;;;;14.23;7.20;;;;;;;;;;5070505;28;20181;-66
2022/05/05 02:01:40;;;;;;;14.67;7.53;;;;;;;;;;5067755;28;20191;-66
2022/05/05 02:04:06;;;;;;;14.93;7.50;;;;;;;;;;5062225;28;20587;-66
2022/05/05 02:06:31;;;;;;;14.57;7.15;;;;;;;;;;5062893;28;20209;-66
2022/05/05 02:08:58;;;;;;;13.57;8.35;;;;;;;;;;5069489;28;20674;-66
2022/05/05 02:11:24;;;;;;;15.55;7.55;;;;;;;;;;5062443;28;20248;-66
2022/05/05 02:13:50;;;;;;;11.00;7.27;;;;;;;;;;5065448;28;20182;-66
2022/05/05 02:16:15;;;;;;;16.75;7.72;;;;;;;;;;5069587;28;20173;-66
2022/05/05 02:18:41;;;;;;;15.25;7.90;;;;;;;;;;5066805;28;20181;-66
2022/05/05 02:21:06;;;;;;;15.77;7.83;;;;;;;;;;5069907;28;20198;-66
2022/05/05 02:23:32;;;;;;;15.77;8.27;;;;;;;;;;5069480;28;20220;-65
2022/05/05 02:25:57;;;;;;;17.95;8.05;;;;;;;;;;5068658;28;20564;-66
2022/05/05 02:28:22;;;;;;;18.57;8.03;;;;;;;;;;5068768;28;20196;-66
2022/05/05 02:30:48;;;;;;;13.15;8.20;;;;;;;;;;5068255;28;20232;-66
2022/05/05 02:33:14;;;;;;;15.95;8.10;;;;;;;;;;5068530;28;20188;-66
2022/05/05 02:35:39;;;;;;;15.88;8.23;;;;;;;;;;5083738;28;20184;-65
2022/05/05 02:40:48;;;;;;;17.13;7.75;;;;;;;;;;5068280;28;20250;-65
2022/05/05 02:43:13;;;;;;;16.33;8.45;;;;;;;;;;5069045;28;20648;-65
2022/05/05 02:45:40;;;;;;;14.32;7.43;;;;;;;;;;5068693;28;20287;-66
2022/05/05 02:48:06;;;;;;;17.20;8.88;;;;;;;;;;5068629;28;20188;-66
2022/05/05 02:50:32;;;;;;;14.73;8.73;;;;;;;;;;5069178;28;20199;-66
2022/05/05 02:52:58;;;;;;;16.10;8.95;;;;;;;;;;5068116;28;20282;-65
2022/05/05 02:55:23;;;;;;;20.13;8.87;;;;;;;;;;5068519;28;20188;-65
2022/05/05 02:57:50;;;;;;;15.32;8.05;;;;;;;;;;5063668;28;20210;-66
2022/05/05 03:00:16;;;;;;;14.77;8.43;;;;;;;;;;5061298;28;20499;-66
2022/05/05 03:02:44;;;;;;;19.23;8.23;;;;;;;;;;5079432;28;20177;-66
2022/05/05 03:05:10;;;;;;;15.80;8.63;;;;;;;;;;5059450;28;20215;-66
2022/05/05 03:07:36;;;;;;;15.65;9.80;;;;;;;;;;5064171;28;20429;-66
2022/05/05 03:10:02;;;;;;;21.57;8.93;;;;;;;;;;5068292;28;20333;-66
2022/05/05 03:12:27;;;;;;;18.37;8.60;;;;;;;;;;5067073;28;20230;-66
2022/05/05 03:14:53;;;;;;;17.20;8.97;;;;;;;;;;5067686;28;20185;-66
2022/05/05 03:17:19;;;;;;;16.37;9.27;;;;;;;;;;5068359;28;20181;-66
2022/05/05 03:19:44;;;;;;;16.40;9.20;;;;;;;;;;5068307;28;20249;-66
2022/05/05 03:22:09;;;;;;;16.40;8.43;;;;;;;;;;5058847;28;20580;-66
2022/05/05 03:24:35;;;;;;;17.77;9.10;;;;;;;;;;5068331;28;20639;-66
2022/05/05 03:27:01;;;;;;;17.17;8.93;;;;;;;;;;5067558;28;20269;-66
2022/05/05 03:29:27;;;;;;;19.80;9.40;;;;;;;;;;5068894;28;20718;-66
2022/05/05 03:31:53;;;;;;;22.47;9.10;;;;;;;;;;5058983;28;20285;-66
2022/05/05 03:34:19;;;;;;;19.00;9.88;;;;;;;;;;5084550;28;20180;-66
2022/05/05 03:36:44;;;;;;;18.37;9.47;;;;;;;;;;5067258;28;20195;-66
2022/05/05 03:39:09;;;;;;;21.43;9.67;;;;;;;;;;5067359;28;20184;-66
2022/05/05 03:41:35;;;;;;;20.77;9.83;;;;;;;;;;5062728;28;20717;-66
2022/05/05 03:44:00;;;;;;;17.93;9.80;;;;;;;;;;5066703;28;20204;-66
2022/05/05 03:46:26;;;;;;;16.97;9.57;;;;;;;;;;5082819;28;20616;-66
2022/05/05 03:48:52;;;;;;;16.73;9.43;;;;;;;;;;5058525;28;20223;-66
2022/05/05 03:51:18;;;;;;;19.70;10.47;;;;;;;;;;5067894;28;20188;-66
2022/05/05 03:53:43;;;;;;;18.40;10.30;;;;;;;;;;5067025;28;20255;-66
2022/05/05 03:56:08;;;;;;;19.27;9.43;;;;;;;;;;5068198;28;20192;-66
2022/05/05 03:58:34;;;;;;;16.90;9.67;;;;;;;;;;5054016;28;20276;-66
2022/05/05 04:00:59;;;;;;;16.60;9.30;;;;;;;;;;5067732;28;20506;-66
2022/05/05 04:03:30;;;;;;;17.67;9.57;;;;;;;;;;5066506;28;20188;-66
2022/05/05 04:06:00;;;;;;;17.33;9.73;;;;;;;;;;5068038;28;20200;-66
2022/05/05 04:08:26;;;;;;;20.10;9.70;;;;;;;;;;5065176;28;20231;-66
2022/05/05 04:10:51;;;;;;;21.60;10.17;;;;;;;;;;5067489;28;20564;-66
2022/05/05 04:13:16;;;;;;;17.10;9.40;;;;;;;;;;5066746;28;20190;-66
2022/05/05 04:15:42;;;;;;;21.20;10.50;;;;;;;;;;5064473;28;20266;-66
2022/05/05 04:18:07;;;;;;;17.47;10.17;;;;;;;;;;5070235;28;20669;-66
2022/05/05 04:20:33;;;;;;;18.20;9.77;;;;;;;;;;5071423;28;20176;-66
2022/05/05 04:22:58;;;;;;;23.47;10.43;;;;;;;;;;5071608;28;20180;-66
2022/05/05 04:25:23;;;;;;;15.30;9.67;;;;;;;;;;5071419;28;20188;-66
2022/05/05 04:27:50;;;;;;;21.40;9.43;;;;;;;;;;5067203;28;20188;-66
2022/05/05 04:30:16;;;;;;;15.73;9.77;;;;;;;;;;5072023;28;20711;-66
2022/05/05 04:32:42;;;;;;;17.20;9.43;;;;;;;;;;5070949;28;20242;-66
2022/05/05 04:35:08;;;;;;;15.53;9.50;;;;;;;;;;5070544;28;20287;-66
2022/05/05 04:37:34;;;;;;;17.50;9.47;;;;;;;;;;5070650;28;20700;-66
2022/05/05 04:39:59;;;;;;;15.70;10.00;;;;;;;;;;5069165;28;20709;-66
2022/05/05 04:42:27;;;;;;;15.63;10.20;;;;;;;;;;5070786;28;20180;-66
2022/05/05 04:44:52;;;;;;;16.80;10.00;;;;;;;;;;5071827;28;20184;-66
2022/05/05 04:47:18;;;;;;;17.67;9.37;;;;;;;;;;5068051;28;20214;-66
2022/05/05 04:49:44;;;;;;;16.10;9.93;;;;;;;;;;5071548;28;20180;-66
2022/05/05 04:52:10;;;;;;;15.10;9.55;;;;;;;;;;5070117;28;20615;-67
2022/05/05 04:54:35;;;;;;;20.75;10.02;;;;;;;;;;5070828;28;20181;-66
2022/05/05 04:57:00;;;;;;;17.20;9.63;;;;;;;;;;5070310;28;20173;-66
2022/05/05 04:59:26;;;;;;;13.88;9.60;;;;;;;;;;5071534;28;20670;-66
2022/05/05 05:01:52;;;;;;;15.68;10.27;;;;;;;;;;5070383;28;20188;-67
2022/05/05 05:04:17;;;;;;;21.05;9.95;;;;;;;;;;5080040;28;20181;-66
2022/05/05 05:06:42;;;;;;;17.25;8.98;;;;;;;;;;5066528;28;20245;-66
2022/05/05 05:09:08;;;;;;;17.55;9.95;;;;;;;;;;5069716;28;20286;-66
2022/05/05 05:11:33;;;;;;;20.15;9.98;;;;;;;;;;5069779;28;20176;-66
2022/05/05 05:13:59;;;;;;;14.40;9.07;;;;;;;;;;5066490;28;20200;-66
2022/05/05 05:16:25;;;;;;;15.13;9.60;;;;;;;;;;5069842;28;20587;-66
2022/05/05 05:18:53;;;;;;;20.92;9.25;;;;;;;;;;5068569;28;20251;-66
2022/05/05 05:21:19;;;;;;;18.65;9.82;;;;;;;;;;5058208;28;20172;-66
2022/05/05 05:23:44;;;;;;;16.77;9.65;;;;;;;;;;5068940;28;20185;-66
2022/05/05 05:26:10;;;;;;;19.23;9.20;;;;;;;;;;5067220;28;20284;-65
2022/05/05 05:28:35;;;;;;;15.98;9.73;;;;;;;;;;5069245;28;20195;-66
2022/05/05 05:31:00;;;;;;;16.65;9.88;;;;;;;;;;5069447;28;20554;-66
2022/05/05 05:33:26;;;;;;;14.73;9.82;;;;;;;;;;5068339;28;20268;-66
2022/05/05 05:35:51;;;;;;;13.48;9.50;;;;;;;;;;5068814;28;20173;-66
2022/05/05 05:38:20;;;;;;;19.55;9.50;;;;;;;;;;5067962;28;20519;-66
2022/05/05 05:40:46;;;;;;;15.98;9.77;;;;;;;;;;5068859;28;20173;-66
2022/05/05 05:43:11;;;;;;;21.33;10.48;;;;;;;;;;5068623;28;20606;-66
2022/05/05 05:45:36;;;;;;;20.80;10.13;;;;;;;;;;5067509;28;20798;-66
2022/05/05 05:48:02;;;;;;;23.23;10.07;;;;;;;;;;5061695;28;20189;-66
2022/05/05 05:50:30;;;;;;;18.77;9.63;;;;;;;;;;5065931;28;20246;-66
2022/05/05 05:52:56;;;;;;;17.20;10.00;;;;;;;;;;5067925;28;20188;-65
2022/05/05 05:55:21;;;;;;;22.23;10.55;;;;;;;;;;5060366;28;20185;-65
2022/05/05 05:57:47;;;;;;;20.38;11.00;;;;;;;;;;5054969;28;20561;-65
2022/05/05 06:00:13;;;;;;;25.42;10.90;;;;;;;;;;5065958;28;20493;-65
2022/05/05 06:05:22;;;;;;;17.35;10.82;;;;;;;;;;5068674;28;20215;-65
2022/05/05 06:07:48;;;;;;;17.58;10.75;;;;;;;;;;5032485;28;1042296;-65
2022/05/05 06:10:13;;;;;;;21.75;11.00;;;;;;;;;;5069761;28;20241;-66
2022/05/05 06:12:39;;;;;;;20.50;11.73;;;;;;;;;;5064431;28;20191;-66
2022/05/05 06:15:04;;;;;;;19.45;11.10;;;;;;;;;;5064963;28;20177;-66
2022/05/05 06:17:30;;;;;;;17.42;10.65;;;;;;;;;;5085261;28;20184;-66
2022/05/05 06:19:55;;;;;;;17.30;11.20;;;;;;;;;;5069601;28;20192;-66
2022/05/05 06:22:20;;;;;;;15.98;11.07;;;;;;;;;;5068496;28;20185;-66
2022/05/05 06:24:46;;;;;;;18.85;10.90;;;;;;;;;;5068072;28;20656;-66
2022/05/05 06:27:11;;;;;;;18.60;11.85;;;;;;;;;;5069667;28;20201;-66
2022/05/05 06:29:36;;;;;;;27.60;11.38;;;;;;;;;;5069668;28;20173;-66
2022/05/05 06:32:02;;;;;;;17.80;11.52;;;;;;;;;;5067861;28;20274;-67
2022/05/05 06:34:28;;;;;;;20.42;10.93;;;;;;;;;;5069974;28;20658;-66
2022/05/05 06:36:54;;;;;;;19.08;11.13;;;;;;;;;;5067580;28;20250;-66
2022/05/05 06:39:19;;;;;;;21.25;10.82;;;;;;;;;;5059113;28;20599;-66
2022/05/05 06:41:44;;;;;;;14.70;9.40;;;;;;;;;;5069013;28;20672;-66
2022/05/05 06:44:10;;;;;;;15.15;10.25;;;;;;;;;;5066382;28;20241;-65
2022/05/05 06:46:36;;;;;;;20.23;10.65;;;;;;;;;;5068343;28;20258;-65
2022/05/05 06:49:01;;;;;;;17.52;10.25;;;;;;;;;;5067273;28;20710;-65
2022/05/05 06:51:27;;;;;;;26.75;10.13;;;;;;;;;;5068705;28;20180;-65
2022/05/05 06:53:52;;;;;;;15.98;9.93;;;;;;;;;;5067302;28;20267;-65
2022/05/05 06:56:17;;;;;;;18.35;9.88;;;;;;;;;;5068517;28;20616;-66
2022/05/05 06:58:43;;;;;;;16.80;9.88;;;;;;;;;;5068127;28;20616;-65
2022/05/05 07:05:23;;;;;;;19.92;9.93;;;;;;;;;;5066697;28;20695;-66
2022/05/05 07:06:37;;;;;;;19.70;10.25;;;;;;;;;;5063436;28;20761;-66
2022/05/05 07:11:46;;;;;;;18.60;9.60;;;;;;;;;;5067910;28;20186;-66
2022/05/05 07:14:12;;;;;;;16.50;9.68;;;;;;;;;;5067317;28;20284;-66
2022/05/05 07:16:37;;;;;;;17.17;9.23;;;;;;;;;;5068262;28;20364;-66
2022/05/05 07:19:04;;;;;;;22.33;9.85;;;;;;;;;;5059809;28;20699;-66
2022/05/05 07:21:30;;;;;;;19.38;9.88;;;;;;;;;;5068554;28;20665;-66
2022/05/05 07:23:56;;;;;;;22.02;10.07;;;;;;;;;;5067293;28;20181;-66
2022/05/05 07:26:21;;;;;;;16.35;8.98;;;;;;;;;;5067826;28;20248;-66
2022/05/05 07:28:47;;;;;;;19.02;9.68;;;;;;;;;;5058957;28;20241;-66
2022/05/05 07:31:12;;;;;;;16.60;9.45;;;;;;;;;;5067723;28;20200;-66
2022/05/05 07:33:37;;;;;;;14.65;8.48;;;;;;;;;;5057656;28;20513;-66
2022/05/05 07:36:03;;;;;;;20.50;9.27;;;;;;;;;;5068356;28;20176;-66
2022/05/05 07:38:28;;;;;;;17.27;8.23;;;;;;;;;;5067528;28;20192;-66
2022/05/05 07:40:53;;;;;;;18.08;8.27;;;;;;;;;;5066918;28;20200;-66
2022/05/05 07:43:19;;;;;;;13.77;8.48;;;;;;;;;;5082877;28;20215;-67
2022/05/05 07:45:45;;;;;;;11.55;8.18;;;;;;;;;;5064542;28;20178;-66
2022/05/05 07:48:11;;;;;;;17.55;8.48;;;;;;;;;;5067637;28;20532;-66
2022/05/05 07:50:36;;;;;;;17.58;8.85;;;;;;;;;;5067534;28;20185;-65
2022/05/05 07:53:02;;;;;;;16.85;8.07;;;;;;;;;;5067406;28;20191;-66
2022/05/05 07:55:27;;;;;;;16.35;8.10;;;;;;;;;;5068165;28;20226;-66
2022/05/05 07:57:53;;;;;;;11.05;7.57;;;;;;;;;;5062064;28;20178;-67
2022/05/05 08:00:18;;;;;;;14.65;7.28;;;;;;;;;;5068100;28;20169;-66
2022/05/05 08:02:44;;;;;;;12.30;6.78;;;;;;;;;;5066868;28;20214;-66
2022/05/05 08:05:12;;;;;;;14.50;6.68;;;;;;;;;;5066970;28;20177;-67
2022/05/05 08:07:40;;;;;;;18.70;6.55;;;;;;;;;;5067930;28;20232;-66
2022/05/05 08:10:06;;;;;;;16.85;6.20;;;;;;;;;;5067336;28;20204;-66
2022/05/05 08:12:31;;;;;;;17.92;8.70;;;;;;;;;;5059018;28;20181;-66
2022/05/05 08:14:57;;;;;;;10.77;5.10;;;;;;;;;;5061242;28;20196;-66
2022/05/05 08:17:22;;;;;;;14.75;6.28;;;;;;;;;;5067964;28;20549;-66
2022/05/05 08:19:48;;;;;;;12.57;6.25;;;;;;;;;;5067621;28;20185;-67
2022/05/05 08:22:13;;;;;;;12.48;6.28;;;;;;;;;;5067256;28;20640;-66
2022/05/05 08:30:07;;;;;;;14.25;6.22;;;;;;;;;;5067320;28;20258;-67
2022/05/05 08:32:32;;;;;;;12.13;5.20;;;;;;;;;;5067524;28;20204;-66
2022/05/05 08:34:58;;;;;;;12.77;4.32;;;;;;;;;;5063979;28;20184;-65
2022/05/05 08:37:23;;;;;;;10.75;6.32;;;;;;;;;;5063490;28;20188;-65
2022/05/05 08:39:48;;;;;;;9.25;4.32;;;;;;;;;;5067438;28;20192;-66
2022/05/05 08:42:14;;;;;;;11.45;4.70;;;;;;;;;;5059567;28;20672;-65
2022/05/05 08:44:39;;;;;;;9.30;4.68;;;;;;;;;;5061878;28;20228;-66
2022/05/05 08:47:08;;;;;;;8.00;4.53;;;;;;;;;;5066932;28;20208;-66
2022/05/05 08:49:35;;;;;;;7.72;4.03;;;;;;;;;;5068143;28;20184;-65
2022/05/05 08:52:03;;;;;;;7.22;4.35;;;;;;;;;;5067143;28;20672;-65
2022/05/05 08:54:32;;;;;;;16.60;5.85;;;;;;;;;;5066689;28;20279;-66
2022/05/05 08:56:57;;;;;;;11.23;6.13;;;;;;;;;;5065893;28;20181;-66
2022/05/05 08:59:25;;;;;;;9.73;5.25;;;;;;;;;;5058784;28;20809;-66
2022/05/05 09:01:53;;;;;;;11.05;6.05;;;;;;;;;;5068031;28;20185;-65
2022/05/05 09:04:20;;;;;;;9.55;5.57;;;;;;;;;;5070420;28;20376;-65
2022/05/05 09:06:51;;;;;;;8.80;4.95;;;;;;;;;;5068862;28;20568;-65
2022/05/05 09:09:26;;;;;;;10.88;5.68;;;;;;;;;;5062908;28;20182;-64
2022/05/05 09:12:14;;;;;;;8.88;5.15;;;;;;;;;;5067108;28;20667;-66
2022/05/05 09:14:45;;;;;;;14.35;7.90;;;;;;;;;;5059035;28;20181;-67
2022/05/05 09:17:19;;;;;;;13.40;6.03;;;;;;;;;;5069761;28;20177;-66
2022/05/05 09:19:47;;;;;;;9.00;4.60;;;;;;;;;;5070699;28;20180;-66
2022/05/05 09:22:13;;;;;;;8.00;5.05;;;;;;;;;;5069073;28;20684;-66
2022/05/05 09:24:43;;;;;;;9.80;5.05;;;;;;;;;;5070149;28;20185;-66
2022/05/05 09:27:38;;;;;;;10.13;4.43;;;;;;;;;;5070430;28;20192;-67
2022/05/05 09:30:03;;;;;;;7.93;5.20;;;;;;;;;;5048960;28;20288;-66
2022/05/05 09:32:30;;;;;;;10.73;4.38;;;;;;;;;;5064909;28;20317;-66
2022/05/05 09:35:02;;;;;;;6.78;4.18;;;;;;;;;;5063459;28;20325;-65
2022/05/05 09:37:28;;;;;;;6.90;4.03;;;;;;;;;;5069188;28;20716;-67
2022/05/05 09:39:55;;;;;;;7.53;4.28;;;;;;;;;;5069844;28;20539;-66
2022/05/05 09:42:41;;;;;;;10.90;5.18;;;;;;;;;;5068778;28;20188;-67
2022/05/05 09:45:19;;;;;;;7.00;4.25;;;;;;;;;;5069388;28;20196;-66
2022/05/05 09:47:59;;;;;;;9.02;4.82;;;;;;;;;;5069425;28;20228;-67
2022/05/05 09:50:28;;;;;;;11.02;4.70;;;;;;;;;;5068685;28;20279;-66
2022/05/05 09:58:43;;;;;;;6.13;3.55;;;;;;;;;;5069622;28;20666;-67
2022/05/05 10:01:09;;;;;;;6.68;3.85;;;;;;;;;;5063497;28;20243;-67
2022/05/05 10:04:00;;;;;;;8.20;4.18;;;;;;;;;;5069089;28;20530;-66
2022/05/05 10:06:36;;;;;;;9.02;4.47;;;;;;;;;;5068658;28;20208;-67
2022/05/05 10:09:06;;;;;;;9.32;3.92;;;;;;;;;;5069369;28;20232;-67
2022/05/05 10:11:32;;;;;;;5.75;4.55;;;;;;;;;;5069324;28;20267;-66
2022/05/05 10:14:03;;;;;;;6.93;3.78;;;;;;;;;;5064830;28;21029;-67
2022/05/05 10:16:32;;;;;;;8.63;4.25;;;;;;;;;;5066957;28;20185;-67
2022/05/05 10:18:59;;;;;;;7.00;3.70;;;;;;;;;;5066995;28;20172;-67
2022/05/05 10:21:51;;;;;;;8.07;3.80;;;;;;;;;;5059379;28;20722;-67
2022/05/05 10:24:23;;;;;;;7.72;3.50;;;;;;;;;;5065141;28;20264;-66
2022/05/05 10:26:54;;;;;;;7.85;3.55;;;;;;;;;;5061005;28;20702;-68
2022/05/05 10:29:34;;;;;;;6.70;3.78;;;;;;;;;;5063770;28;20280;-66
2022/05/05 10:32:28;;;;;;;11.45;4.50;;;;;;;;;;5066394;28;20208;-67
2022/05/05 10:35:07;;;;;;;5.75;4.07;;;;;;;;;;5066849;28;20201;-66
2022/05/05 10:37:36;;;;;;;8.00;4.10;;;;;;;;;;5057192;28;20563;-67
2022/05/05 10:40:06;;;;;;;8.50;3.88;;;;;;;;;;5057604;28;20243;-67
2022/05/05 10:42:33;;;;;;;7.40;3.85;;;;;;;;;;5061600;28;20195;-67
2022/05/05 10:45:05;;;;;;;6.05;3.50;;;;;;;;;;5069454;28;20192;-67
2022/05/05 10:47:49;;;;;;;5.78;3.97;;;;;;;;;;5068243;28;20208;-69
2022/05/05 10:50:31;;;;;;;6.70;4.00;;;;;;;;;;5069248;28;20191;-68
2022/05/05 10:52:57;;;;;;;6.45;4.70;;;;;;;;;;5068653;28;20268;-68
2022/05/05 10:55:39;;;;;;;5.35;3.85;;;;;;;;;;5064239;28;20188;-68
2022/05/05 10:58:05;;;;;;;5.10;4.05;;;;;;;;;;5068686;28;20184;-68
2022/05/05 11:00:42;;;;;;;6.78;3.88;;;;;;;;;;5065332;28;20538;-67
2022/05/05 11:03:09;;;;;;;7.03;3.75;;;;;;;;;;5068581;28;20640;-67
2022/05/05 11:05:38;;;;;;;9.75;4.10;;;;;;;;;;5063961;28;20184;-67
2022/05/05 11:08:07;;;;;;;9.23;4.25;;;;;;;;;;5068677;28;20235;-67
2022/05/05 11:13:40;;;;;;;7.82;4.20;;;;;;;;;;5046792;28;20189;-67
2022/05/05 11:22:18;;;;;;;6.57;4.47;;;;;;;;;;5061804;28;20223;-67
2022/05/05 11:24:49;;;;;;;6.85;3.92;;;;;;;;;;5062124;28;20314;-67
2022/05/05 11:27:16;;;;;;;8.60;3.40;;;;;;;;;;5066339;28;20291;-67
2022/05/05 11:29:56;;;;;;;6.40;3.53;;;;;;;;;;5059500;28;20173;-67
2022/05/05 11:32:29;;;;;;;6.68;4.30;;;;;;;;;;5055265;28;20192;-68
2022/05/05 11:34:54;;;;;;;5.35;3.20;;;;;;;;;;5064977;28;20181;-68
2022/05/05 11:37:20;;;;;;;8.18;4.15;;;;;;;;;;5054919;28;20645;-67
2022/05/05 11:39:48;;;;;;;7.82;4.22;;;;;;;;;;5060111;28;20181;-67
2022/05/05 11:42:13;;;;;;;5.55;4.03;;;;;;;;;;5067949;28;20258;-68
2022/05/05 11:44:43;;;;;;;7.38;4.15;;;;;;;;;;5064990;28;20588;-67
2022/05/05 11:47:12;;;;;;;7.65;4.25;;;;;;;;;;5064606;28;20608;-66
2022/05/05 11:49:39;;;;;;;13.15;4.45;;;;;;;;;;5065981;28;20212;-67
2022/05/05 11:52:05;;;;;;;9.15;4.72;;;;;;;;;;5064242;28;20691;-67
2022/05/05 11:54:32;;;;;;;7.55;4.00;;;;;;;;;;5067432;28;20191;-68
2022/05/05 11:56:59;;;;;;;6.05;4.07;;;;;;;;;;5063262;28;20187;-68
2022/05/05 12:02:17;;;;;;;6.35;3.83;;;;;;;;;;5061784;28;20651;-68
2022/05/05 12:04:44;;;;;;;6.25;3.92;;;;;;;;;;5067832;28;20667;-68
2022/05/05 12:07:20;;;;;;;6.32;4.03;;;;;;;;;;5068074;28;20597;-68
2022/05/05 12:09:58;;;;;;;6.70;3.90;;;;;;;;;;5066245;28;20169;-68
2022/05/05 12:12:26;;;;;;;7.25;4.57;;;;;;;;;;5062314;28;20236;-68
2022/05/05 12:14:54;;;;;;;5.70;3.50;;;;;;;;;;5059975;28;20230;-69
2022/05/05 12:17:22;;;;;;;5.45;3.67;;;;;;;;;;5068387;28;20226;-68
2022/05/05 12:19:52;;;;;;;6.70;3.67;;;;;;;;;;5067607;28;20234;-68
2022/05/05 12:22:38;;;;;;;8.43;4.25;;;;;;;;;;5067258;28;20196;-68
2022/05/05 12:25:06;;;;;;;5.80;4.25;;;;;;;;;;5064989;28;20524;-68
2022/05/05 12:27:31;;;;;;;8.38;5.03;;;;;;;;;;5064933;28;20676;-69
2022/05/05 12:29:56;;;;;;;8.93;4.38;;;;;;;;;;5061904;28;20215;-68
2022/05/05 12:32:22;;;;;;;7.28;4.50;;;;;;;;;;5068138;28;20212;-68
2022/05/05 12:34:47;;;;;;;8.55;4.55;;;;;;;;;;5059350;28;20188;-66
2022/05/05 12:37:17;;;;;;;5.35;4.03;;;;;;;;;;5069923;28;20225;-67
2022/05/05 12:40:02;;;;;;;11.18;4.60;;;;;;;;;;5061660;28;20229;-67
2022/05/05 12:42:43;;;;;;;7.45;3.78;;;;;;;;;;5071035;28;20188;-66
2022/05/05 12:45:20;;;;;;;6.35;4.32;;;;;;;;;;5068559;28;20492;-66
2022/05/05 12:47:47;;;;;;;5.45;3.45;;;;;;;;;;5068212;28;20188;-67
2022/05/05 12:50:28;;;;;;;7.65;4.10;;;;;;;;;;5072239;28;20185;-67
2022/05/05 13:01:05;;;;;;;8.63;4.60;;;;;;;;;;5060628;28;20251;-67
2022/05/05 13:03:30;;;;;;;6.22;4.10;;;;;;;;;;5069402;28;20640;-67
2022/05/05 13:05:56;;;;;;;5.85;4.82;;;;;;;;;;5066537;28;20185;-67
2022/05/05 13:08:22;;;;;;;7.32;4.82;;;;;;;;;;5059207;28;20232;-67
2022/05/05 13:10:47;;;;;;;7.97;4.38;;;;;;;;;;5055675;28;20574;-67
2022/05/05 13:13:13;;;;;;;7.15;3.70;;;;;;;;;;5065457;28;20230;-67
2022/05/05 13:15:39;;;;;;;6.57;4.07;;;;;;;;;;5064818;28;20534;-68
2022/05/05 13:18:05;;;;;;;10.95;4.38;;;;;;;;;;5066982;28;20184;-67
2022/05/05 13:20:31;;;;;;;5.72;3.47;;;;;;;;;;5070644;28;20704;-68
2022/05/05 13:22:56;;;;;;;5.93;3.67;;;;;;;;;;5070903;28;20283;-67
2022/05/05 13:25:24;;;;;;;6.57;3.75;;;;;;;;;;5071081;28;20288;-67
2022/05/05 13:27:49;;;;;;;6.72;3.83;;;;;;;;;;5058700;28;20201;-67
2022/05/05 13:30:15;;;;;;;5.97;4.20;;;;;;;;;;5067013;28;20176;-67
2022/05/05 13:32:40;;;;;;;7.97;4.55;;;;;;;;;;5067700;28;20578;-67
2022/05/05 13:35:06;;;;;;;6.25;4.47;;;;;;;;;;5070046;28;20551;-67
2022/05/05 13:37:31;;;;;;;10.45;4.55;;;;;;;;;;5068181;28;20230;-67
2022/05/05 13:39:56;;;;;;;5.40;3.50;;;;;;;;;;5070421;28;20183;-68
2022/05/05 13:42:22;;;;;;;6.50;4.20;;;;;;;;;;5069437;28;20189;-67
2022/05/05 13:44:47;;;;;;;7.65;4.70;;;;;;;;;;5070125;28;20384;-67
2022/05/05 13:47:13;;;;;;;5.22;3.92;;;;;;;;;;5068331;28;20588;-68
2022/05/05 13:49:38;;;;;;;5.15;3.83;;;;;;;;;;5064684;28;20280;-67
2022/05/05 13:52:04;;;;;;;5.55;3.97;;;;;;;;;;5065566;28;20188;-65
2022/05/05 13:54:29;;;;;;;5.15;3.58;;;;;;;;;;5070072;28;20640;-67
2022/05/05 13:56:55;;;;;;;9.10;4.20;;;;;;;;;;5063355;28;20664;-66
2022/05/05 13:59:21;;;;;;;9.57;4.03;;;;;;;;;;5062737;28;20305;-66
2022/05/05 14:01:46;;;;;;;4.88;3.40;;;;;;;;;;5058725;28;20205;-67
2022/05/05 14:04:11;;;;;;;4.68;3.13;;;;;;;;;;5068541;28;20181;-66
2022/05/05 14:06:37;;;;;;;4.65;2.47;;;;;;;;;;5058717;28;20675;-66
2022/05/05 14:14:30;;;;;;;5.15;3.58;;;;;;;;;;5059198;28;20287;-66
2022/05/05 14:16:56;;;;;;;5.65;3.65;;;;;;;;;;5058705;28;20748;-67
2022/05/05 14:19:21;;;;;;;5.20;4.10;;;;;;;;;;5069384;28;20209;-67
2022/05/05 14:21:46;;;;;;;7.53;4.22;;;;;;;;;;5069567;28;20177;-67
2022/05/05 14:24:12;;;;;;;4.28;3.42;;;;;;;;;;5069470;28;20181;-66
2022/05/05 14:26:38;;;;;;;4.20;3.63;;;;;;;;;;5067682;28;20205;-67
2022/05/05 14:29:04;;;;;;;5.00;3.42;;;;;;;;;;5056388;28;20256;-67
2022/05/05 14:31:30;;;;;;;6.43;3.33;;;;;;;;;;5060454;28;20204;-67
2022/05/05 14:33:55;;;;;;;3.33;2.78;;;;;;;;;;5067933;28;20173;-67
2022/05/05 14:36:21;;;;;;;4.00;2.90;;;;;;;;;;5070000;28;20180;-67
2022/05/05 14:38:46;;;;;;;3.15;2.85;;;;;;;;;;5068620;28;20181;-67
2022/05/05 14:41:11;;;;;;;4.05;3.15;;;;;;;;;;5058842;28;20173;-67
2022/05/05 14:43:37;;;;;;;3.90;3.15;;;;;;;;;;5084732;28;20180;-67
2022/05/05 14:46:02;;;;;;;5.68;3.75;;;;;;;;;;5066162;28;20609;-66
2022/05/05 14:48:29;;;;;;;6.50;3.72;;;;;;;;;;5069684;28;20670;-67
2022/05/05 14:50:54;;;;;;;6.05;3.40;;;;;;;;;;5062828;28;20181;-67
2022/05/05 14:53:21;;;;;;;5.63;3.03;;;;;;;;;;5065109;28;20310;-67
2022/05/05 14:55:47;;;;;;;6.75;3.30;;;;;;;;;;5066883;28;20407;-67
2022/05/05 14:58:12;;;;;;;6.78;3.50;;;;;;;;;;5064821;28;20185;-67
2022/05/05 15:00:39;;;;;;;6.10;3.92;;;;;;;;;;5069046;28;20594;-67
2022/05/05 15:03:05;;;;;;;4.97;3.22;;;;;;;;;;5062154;28;20600;-67
2022/05/05 15:05:30;;;;;;;6.18;3.90;;;;;;;;;;5069153;28;20189;-67
2022/05/05 15:07:56;;;;;;;5.93;3.60;;;;;;;;;;5058648;28;20659;-67
2022/05/05 15:10:21;;;;;;;6.15;3.60;;;;;;;;;;5063269;28;20223;-67
2022/05/05 15:12:46;;;;;;;5.95;3.33;;;;;;;;;;5058251;28;20189;-67
2022/05/05 15:15:12;;;;;;;6.82;3.60;;;;;;;;;;5066786;28;20176;-67
2022/05/05 15:17:37;;;;;;;6.55;3.60;;;;;;;;;;5065416;28;20185;-67
2022/05/05 15:20:02;;;;;;;5.13;3.05;;;;;;;;;;5067935;28;20208;-68
2022/05/05 15:22:28;;;;;;;6.55;3.55;;;;;;;;;;5057717;28;20235;-67
2022/05/05 15:25:04;;;;;;;6.88;3.30;;;;;;;;;;5067039;28;20234;-67
2022/05/05 15:27:30;;;;;;;5.43;3.90;;;;;;;;;;5062464;28;20222;-68
2022/05/05 15:29:56;;;;;;;4.82;3.47;;;;;;;;;;5067329;28;20184;-67
2022/05/05 15:32:25;;;;;;;5.65;3.38;;;;;;;;;;5062116;28;20365;-67